Time;durP1;ratioP1;P1;durP2;ratioP2;P2;SDS_P1;SDS_P2;PMS_P1;PMS_P2;Temp;Humidity;BMP_temperature;BMP_pressure;BME280_temperature;BME280_humidity;BME280_pressure;Samples;Min_cycle;Max_cycle;Signal;HPM_P1;HPM_P2
2021/09/23 00:06:48;;;;;;;15.52;11.35;;;308.10;2304.00;;;;;;4913518;29;20576;-88
2021/09/23 00:13:53;;;;;;;13.60;10.80;;;307.80;2304.00;;;;;;4841156;29;20140;-87
2021/09/23 00:17:20;;;;;;;12.85;10.75;;;308.00;2304.00;;;;;;4804826;29;20077;-88
2021/09/23 00:20:44;;;;;;;11.40;9.85;;;308.00;2304.00;;;;;;4804500;29;20080;-88
2021/09/23 00:24:15;;;;;;;11.48;10.02;;;308.10;2304.00;;;;;;4768438;30;20485;-86
2021/09/23 00:35:01;;;;;;;12.48;9.88;;;308.10;2304.00;;;;;;5046205;28;20389;-88
2021/09/23 00:38:29;;;;;;;12.48;11.15;;;308.10;2304.00;;;;;;5029344;28;20048;-88
2021/09/23 00:41:39;;;;;;;12.02;10.55;;;332.80;2329.60;;;;;;5009443;28;20500;-88
2021/09/23 00:45:15;;;;;;;12.13;10.82;;;308.10;2304.00;;;;;;5009151;28;20084;-88
2021/09/23 00:48:45;;;;;;;14.02;11.63;;;308.10;2304.00;;;;;;4989465;28;20443;-88
2021/09/23 00:51:58;;;;;;;15.95;12.60;;;332.80;2329.60;;;;;;4967682;28;20027;-88
2021/09/23 00:55:35;;;;;;;16.20;12.05;;;332.80;2329.60;;;;;;4931750;29;20072;-88
2021/09/23 00:58:38;;;;;;;16.08;12.50;;;308.10;2304.00;;;;;;4950568;29;20039;-87
2021/09/23 01:02:09;;;;;;;14.43;11.25;;;308.10;2304.00;;;;;;4950670;29;20031;-87
2021/09/23 01:05:44;;;;;;;12.52;10.00;;;308.10;2304.00;;;;;;4947141;29;20036;-88
2021/09/23 01:09:13;;;;;;;12.93;10.43;;;308.10;2304.00;;;;;;4938005;29;20416;-87
2021/09/23 01:15:33;;;;;;;12.82;10.85;;;308.10;2304.00;;;;;;4931011;29;20042;-87
2021/09/23 01:19:11;;;;;;;13.60;10.88;;;308.10;2304.00;;;;;;4950175;29;20180;-85
2021/09/23 01:22:32;;;;;;;13.68;11.45;;;308.10;2304.00;;;;;;4931061;29;20456;-87
2021/09/23 01:26:26;;;;;;;;;;;;;;;;;;;;;
2021/09/23 01:29:36;;;;;;;11.50;10.10;;;308.10;2304.00;;;;;;4844218;29;20038;-87
2021/09/23 01:32:22;;;;;;;12.55;10.52;;;308.10;2304.00;;;;;;4896825;29;20054;-87
2021/09/23 01:35:33;;;;;;;12.30;10.57;;;308.10;2304.00;;;;;;4874669;29;20517;-87
2021/09/23 01:38:21;;;;;;;14.27;10.88;;;308.10;2304.00;;;;;;4801172;29;20134;-87
2021/09/23 01:41:43;;;;;;;12.52;10.88;;;308.10;2304.00;;;;;;4827124;29;20066;-87
2021/09/23 01:44:50;;;;;;;13.13;10.82;;;308.00;2304.00;;;;;;4815092;29;20533;-88
2021/09/23 01:47:54;;;;;;;11.82;10.43;;;308.00;2304.00;;;;;;4799884;29;20026;-87
2021/09/23 01:51:09;;;;;;;13.02;11.43;;;308.10;2304.00;;;;;;4778047;30;20082;-87
2021/09/23 01:54:40;;;;;;;14.00;11.40;;;308.00;2304.00;;;;;;4789549;29;20032;-86
2021/09/23 01:57:49;;;;;;;14.50;11.38;;;308.00;2304.00;;;;;;4786954;29;20061;-87
2021/09/23 02:01:14;;;;;;;13.95;11.80;;;308.00;2304.00;;;;;;4792706;29;20035;-87
2021/09/23 02:04:41;;;;;;;11.70;10.45;;;308.10;2304.00;;;;;;4753247;30;20036;-88
2021/09/23 02:07:59;;;;;;;13.55;11.07;;;308.10;2304.00;;;;;;4770961;30;20117;-87
2021/09/23 02:11:36;;;;;;;13.52;12.10;;;308.10;2304.00;;;;;;4735386;30;20041;-87
2021/09/23 02:14:47;;;;;;;14.32;12.52;;;308.10;2304.00;;;;;;4721181;30;20114;-87
2021/09/23 02:18:17;;;;;;;15.23;12.65;;;308.10;2304.00;;;;;;4717976;30;20544;-87
2021/09/23 02:21:51;;;;;;;14.65;13.10;;;308.10;2304.00;;;;;;4735130;30;20040;-87
2021/09/23 02:24:40;;;;;;;14.93;13.05;;;308.10;2304.00;;;;;;4735317;30;20118;-87
2021/09/23 02:28:16;;;;;;;16.38;12.55;;;308.10;2304.00;;;;;;4694017;30;20053;-87
2021/09/23 02:31:48;;;;;;;17.30;12.95;;;308.10;2304.00;;;;;;4737804;30;20041;-88
2021/09/23 02:42:06;;;;;;;17.52;13.27;;;308.10;2304.00;;;;;;4649767;30;20043;-86
2021/09/23 02:45:31;;;;;;;14.32;12.70;;;308.10;2304.00;;;;;;4612863;30;20040;-86
2021/09/23 02:48:48;;;;;;;14.43;11.73;;;308.10;2304.00;;;;;;4619800;30;20055;-87
2021/09/23 02:51:48;;;;;;;15.40;13.20;;;308.10;2304.00;;;;;;4683245;30;20378;-87
2021/09/23 02:54:38;;;;;;;15.07;13.38;;;308.00;2304.00;;;;;;4683596;30;20060;-87
2021/09/23 02:57:52;;;;;;;15.65;13.43;;;308.10;2304.00;;;;;;4701717;30;20423;-86
2021/09/23 03:01:36;;;;;;;;;;;;;;;;;;;;;
2021/09/23 03:04:38;;;;;;;16.77;14.07;;;308.00;2304.00;;;;;;4702387;30;20398;-86
2021/09/23 03:08:31;;;;;;;16.00;13.18;;;308.00;2304.00;;;;;;4736102;29;20044;-86
2021/09/23 03:11:23;;;;;;;15.00;13.35;;;308.00;2304.00;;;;;;4805670;29;20500;-87
2021/09/23 03:15:12;;;;;;;16.40;13.40;;;308.10;2304.00;;;;;;4758167;30;20180;-87
2021/09/23 03:17:53;;;;;;;17.08;14.65;;;308.00;2304.00;;;;;;4805300;29;20042;-86
2021/09/23 03:21:26;;;;;;;17.58;15.00;;;308.00;2304.00;;;;;;4761064;29;20048;-87
2021/09/23 03:27:43;;;;;;;14.85;13.25;;;308.00;2304.00;;;;;;4751949;30;20044;-86
2021/09/23 03:30:34;;;;;;;16.40;14.50;;;308.00;2304.00;;;;;;4749393;30;20127;-86
2021/09/23 03:33:59;;;;;;;16.63;14.40;;;308.10;2304.00;;;;;;4751571;30;20039;-87
2021/09/23 03:37:27;;;;;;;19.23;15.93;;;308.00;2304.00;;;;;;4803301;29;20107;-86
2021/09/23 03:40:39;;;;;;;16.17;13.95;;;308.00;2304.00;;;;;;4790005;29;20042;-86
2021/09/23 03:44:18;;;;;;;17.88;14.88;;;308.00;2304.00;;;;;;4823856;29;20121;-86
2021/09/23 03:47:46;;;;;;;21.05;15.48;;;308.00;2304.00;;;;;;4823293;29;20038;-87
2021/09/23 03:51:18;;;;;;;17.27;15.23;;;307.90;2304.00;;;;;;4813974;29;20141;-87
2021/09/23 03:57:54;;;;;;;17.90;14.27;;;307.90;2304.00;;;;;;4674150;30;20073;-88
2021/09/23 04:00:37;;;;;;;17.90;16.00;;;307.70;2304.00;;;;;;4633169;30;20217;-88
2021/09/23 04:04:09;;;;;;;18.23;15.95;;;307.90;2304.00;;;;;;4738787;30;20052;-86
2021/09/23 04:07:12;;;;;;;19.40;15.60;;;307.90;2304.00;;;;;;4768764;30;20107;-87
2021/09/23 04:10:42;;;;;;;18.77;15.90;;;307.90;2304.00;;;;;;4737385;30;20284;-87
2021/09/23 04:13:41;;;;;;;16.95;14.90;;;307.90;2304.00;;;;;;4733279;30;20044;-87
2021/09/23 04:17:21;;;;;;;;;;;;;;;;;;;;;
2021/09/23 04:20:17;;;;;;;18.10;15.43;;;307.90;2304.00;;;;;;4713469;30;20037;-87
2021/09/23 04:23:57;;;;;;;19.52;15.43;;;307.90;2304.00;;;;;;4733481;30;20032;-87
2021/09/23 04:27:23;;;;;;;17.02;14.60;;;307.90;2304.00;;;;;;4718988;30;20068;-87
2021/09/23 04:30:50;;;;;;;15.70;13.90;;;307.90;2304.00;;;;;;4740847;30;20040;-87
2021/09/23 04:33:47;;;;;;;17.38;14.95;;;307.80;2304.00;;;;;;4730804;30;20113;-88
2021/09/23 04:37:20;;;;;;;14.90;13.07;;;307.90;2304.00;;;;;;4726990;30;20136;-87
2021/09/23 04:50:28;;;;;;;17.75;15.23;;;307.90;2304.00;;;;;;4732202;30;20525;-89
2021/09/23 04:53:39;;;;;;;16.70;14.18;;;307.90;2304.00;;;;;;4744577;30;20579;-88
2021/09/23 04:56:21;;;;;;;16.55;13.23;;;307.90;2304.00;;;;;;4762828;29;20521;-86
2021/09/23 04:59:43;;;;;;;16.95;14.52;;;307.90;2304.00;;;;;;4854037;29;20037;-86
2021/09/23 05:02:56;;;;;;;17.55;12.40;;;307.90;2304.00;;;;;;4840907;29;20042;-87
2021/09/23 05:06:02;;;;;;;14.13;12.52;;;307.90;2304.00;;;;;;4838816;29;20038;-87
2021/09/23 05:22:15;;;;;;;12.45;10.35;;;307.80;2304.00;;;;;;4754032;30;20043;-87
2021/09/23 05:25:40;;;;;;;16.53;12.37;;;307.90;2304.00;;;;;;4754371;30;20044;-88
2021/09/23 05:32:05;;;;;;;17.27;12.77;;;307.90;2304.00;;;;;;4796780;30;20039;-87
2021/09/23 05:35:32;;;;;;;16.55;14.07;;;308.00;2304.00;;;;;;4768341;30;20043;-88
2021/09/23 05:38:43;;;;;;;13.38;10.65;;;308.00;2304.00;;;;;;4792816;29;20048;-86
2021/09/23 05:41:44;;;;;;;12.05;9.65;;;308.00;2304.00;;;;;;4779575;30;20035;-86
2021/09/23 05:45:06;;;;;;;10.45;8.48;;;308.00;2304.00;;;;;;4765319;30;20075;-86
2021/09/23 05:52:22;;;;;;;;;;;;;;;;;;;;;
2021/09/23 05:56:32;;;;;;;11.75;9.65;;;332.80;2329.60;;;;;;4729065;30;20044;-86
2021/09/23 06:00:06;;;;;;;12.23;9.77;;;332.90;2329.60;;;;;;4766835;30;20114;-87
2021/09/23 06:03:06;;;;;;;12.13;10.02;;;332.90;2329.60;;;;;;4789311;30;20479;-86
2021/09/23 06:10:25;;;;;;;14.40;10.80;;;333.00;2329.60;;;;;;4753080;30;20032;-87
2021/09/23 06:13:47;;;;;;;14.10;12.25;;;333.00;2329.60;;;;;;4766072;30;20056;-87
2021/09/23 06:16:52;;;;;;;14.57;11.63;;;333.00;2329.60;;;;;;4789153;29;20039;-87
2021/09/23 06:24:05;;;;;;;13.65;10.23;;;333.10;2329.60;;;;;;4826383;29;20045;-86
2021/09/23 06:27:29;;;;;;;16.80;13.68;;;333.10;2329.60;;;;;;4839402;29;20038;-86
2021/09/23 06:31:12;;;;;;;23.70;17.60;;;332.80;2329.60;;;;;;4794075;29;20093;-87
2021/09/23 06:38:49;;;;;;;;;;;;;;;;;;;;;
2021/09/23 06:55:05;;;;;;;8.80;7.28;;;333.70;2329.60;;;;;;4777876;30;20050;-86
2021/09/23 07:01:51;;;;;;;;;;;;;;;;;;;;;
2021/09/23 07:09:05;;;;;;;14.07;9.63;;;333.60;2329.60;;;;;;4741321;30;20539;-87
2021/09/23 07:29:38;;;;;;;9.93;6.60;;;358.40;2329.60;;;;;;4623179;30;20619;-86
2021/09/23 07:32:12;;;;;;;8.60;6.53;;;358.60;2329.60;;;;;;4685122;30;20056;-87
2021/09/23 07:39:04;;;;;;;;;;;;;;;;;;;;;
2021/09/23 07:45:29;;;;;;;8.52;6.57;;;358.80;2329.60;;;;;;4841814;29;20028;-86
2021/09/23 08:13:37;;;;;;;12.20;5.75;;;358.80;2329.60;;;;;;4759713;30;20050;-86
2021/09/23 08:16:26;;;;;;;11.18;6.28;;;358.90;2329.60;;;;;;4768746;29;20458;-85
2021/09/23 08:22:48;;;;;;;6.90;5.38;;;359.10;2329.60;;;;;;4864838;29;20160;-90
2021/09/23 08:25:14;;;;;;;8.93;5.65;;;359.30;2329.60;;;;;;4936028;29;20035;-90
2021/09/23 08:27:40;;;;;;;6.40;4.20;;;359.30;2329.60;;;;;;4999131;28;20482;-87
2021/09/23 08:30:06;;;;;;;11.77;7.45;;;384.10;2329.60;;;;;;5016091;28;20040;-86
2021/09/23 08:32:33;;;;;;;11.88;5.57;;;384.10;2329.60;;;;;;5015362;28;20494;-86
2021/09/23 08:34:59;;;;;;;8.10;5.90;;;384.10;2329.60;;;;;;5016366;28;20025;-91
2021/09/23 08:37:25;;;;;;;11.00;6.03;;;384.10;2329.60;;;;;;5016610;28;20120;-88
2021/09/23 08:39:50;;;;;;;10.00;5.07;;;384.20;2329.60;;;;;;5049838;28;20462;-86
2021/09/23 08:42:16;;;;;;;8.82;5.15;;;384.20;2329.60;;;;;;5035798;28;20036;-87
2021/09/23 08:44:43;;;;;;;7.82;5.40;;;384.20;2329.60;;;;;;5036092;28;20112;-85
2021/09/23 08:47:09;;;;;;;6.20;4.57;;;384.30;2329.60;;;;;;5053574;28;20385;-86
2021/09/23 08:49:35;;;;;;;5.72;4.38;;;384.40;2329.60;;;;;;5035979;28;20040;-88
2021/09/23 08:52:01;;;;;;;5.22;4.20;;;384.60;2329.60;;;;;;5040211;28;20428;-87
2021/09/23 08:54:27;;;;;;;6.90;5.10;;;384.70;2329.60;;;;;;5039807;28;20067;-86
2021/09/23 08:56:53;;;;;;;5.13;3.90;;;384.70;2329.60;;;;;;5039876;28;20438;-86
2021/09/23 08:59:19;;;;;;;5.72;4.72;;;384.70;2329.60;;;;;;5039505;28;20029;-86
2021/09/23 09:01:50;;;;;;;5.80;3.95;;;384.80;2329.60;;;;;;5059242;28;20025;-85
2021/09/23 09:04:17;;;;;;;7.30;5.18;;;384.80;2329.60;;;;;;5059655;28;20028;-86
2021/09/23 09:06:54;;;;;;;6.50;5.13;;;384.90;2329.60;;;;;;5059531;28;20024;-88
2021/09/23 09:09:21;;;;;;;12.85;10.88;;;409.70;2355.20;;;;;;5059192;28;20054;-85
2021/09/23 09:11:49;;;;;;;7.10;5.30;;;409.90;2355.20;;;;;;5059478;28;20035;-87
2021/09/23 09:14:42;;;;;;;7.47;4.25;;;409.80;2355.20;;;;;;5059701;28;20056;-89
2021/09/23 09:17:08;;;;;;;6.32;4.43;;;410.00;2355.20;;;;;;5056447;28;20047;-85
2021/09/23 09:19:48;;;;;;;7.13;3.95;;;410.20;2355.20;;;;;;5059143;28;20043;-85
2021/09/23 09:22:24;;;;;;;7.10;5.40;;;410.30;2355.20;;;;;;5076968;28;20055;-85
2021/09/23 09:24:59;;;;;;;9.68;5.20;;;410.30;2355.20;;;;;;5058469;28;20029;-86
2021/09/23 09:27:48;;;;;;;6.80;4.88;;;410.20;2355.20;;;;;;5058858;28;20127;-84
2021/09/23 09:30:17;;;;;;;6.95;5.47;;;410.10;2355.20;;;;;;5058703;28;20063;-86
2021/09/23 09:32:50;;;;;;;6.47;4.70;;;410.00;2355.20;;;;;;5066527;28;20032;-87
2021/09/23 09:35:17;;;;;;;;;;;410.00;2355.20;;;;;;5079697;28;20024;-83
2021/09/23 09:37:46;;;;;;;8.05;5.55;;;410.20;2355.20;;;;;;5079263;28;19911;-88
2021/09/23 09:40:14;;;;;;;6.95;4.32;;;410.20;2355.20;;;;;;5079387;28;20040;-88
2021/09/23 09:42:49;;;;;;;5.50;4.05;;;410.30;2355.20;;;;;;5079289;28;20073;-89
2021/09/23 09:45:17;;;;;;;7.43;4.22;;;410.50;2355.20;;;;;;5096859;28;20379;-90
2021/09/23 09:47:52;;;;;;;5.00;3.80;;;410.30;2355.20;;;;;;5078709;28;20144;-87
2021/09/23 09:50:19;;;;;;;5.70;3.88;;;410.20;2355.20;;;;;;5079277;28;20036;-88
2021/09/23 09:53:09;;;;;;;6.55;4.53;;;410.20;2355.20;;;;;;5078841;28;20027;-87
2021/09/23 09:55:39;;;;;;;9.25;6.05;;;410.30;2355.20;;;;;;5079056;28;20020;-88
2021/09/23 09:58:06;;;;;;;6.75;4.85;;;410.50;2355.20;;;;;;5079225;28;20529;-87
2021/09/23 10:00:33;;;;;;;5.38;3.50;;;435.20;2355.20;;;;;;5078423;28;20459;-86
2021/09/23 10:03:00;;;;;;;7.32;5.65;;;435.20;2355.20;;;;;;5078705;28;20093;-87
2021/09/23 10:05:28;;;;;;;7.68;4.47;;;435.80;2355.20;;;;;;5078872;28;20028;-88
2021/09/23 10:07:57;;;;;;;8.55;5.18;;;410.30;2355.20;;;;;;5078858;28;20028;-89
2021/09/23 10:10:31;;;;;;;8.10;5.55;;;410.50;2355.20;;;;;;5079155;28;20032;-87
2021/09/23 10:13:00;;;;;;;8.82;5.95;;;435.30;2355.20;;;;;;5078728;28;20024;-88
2021/09/23 10:15:27;;;;;;;6.10;4.40;;;435.50;2278.40;;;;;;5078508;28;20028;-88
2021/09/23 10:18:00;;;;;;;9.85;6.47;;;435.60;2278.40;;;;;;5096550;28;20024;-88
2021/09/23 10:20:27;;;;;;;7.20;4.10;;;435.60;2355.20;;;;;;5078571;28;20482;-89
2021/09/23 10:22:54;;;;;;;7.22;5.22;;;435.70;2252.80;;;;;;5078486;28;20491;-87
2021/09/23 10:25:25;;;;;;;11.93;6.75;;;435.70;2329.60;;;;;;5079603;28;20024;-89
2021/09/23 10:28:03;;;;;;;9.40;5.10;;;435.50;2304.00;;;;;;5058254;28;20040;-85
2021/09/23 10:30:38;;;;;;;6.78;4.95;;;435.50;2329.60;;;;;;5057435;28;20044;-85
2021/09/23 10:33:06;;;;;;;7.57;4.53;;;435.30;2304.00;;;;;;5057638;28;20480;-86
2021/09/23 10:35:32;;;;;;;8.27;5.20;;;435.30;2355.20;;;;;;5060115;28;20035;-83
2021/09/23 10:38:01;;;;;;;6.63;4.47;;;435.30;2252.80;;;;;;5058426;28;20487;-85
2021/09/23 10:40:28;;;;;;;7.40;5.50;;;435.30;2329.60;;;;;;5077323;28;20024;-84
2021/09/23 10:42:59;;;;;;;8.90;6.05;;;435.60;2304.00;;;;;;5061362;28;20029;-84
2021/09/23 10:45:27;;;;;;;7.60;5.55;;;435.80;2329.60;;;;;;5063561;28;20028;-84
2021/09/23 10:47:59;;;;;;;9.43;5.55;;;435.80;2329.60;;;;;;5061489;28;20028;-84
2021/09/23 10:50:28;;;;;;;8.93;6.15;;;436.10;2252.80;;;;;;5065259;28;20495;-84
2021/09/23 10:52:56;;;;;;;7.95;5.65;;;460.80;2278.40;;;;;;5062787;28;20040;-85
2021/09/23 10:55:24;;;;;;;12.07;6.38;;;436.10;2278.40;;;;;;5060014;28;20036;-85
2021/09/23 10:57:52;;;;;;;12.25;8.00;;;461.30;2201.60;;;;;;5059161;28;20543;-84
2021/09/23 11:00:25;;;;;;;9.10;5.55;;;461.30;2201.60;;;;;;5058613;28;20031;-84
2021/09/23 11:02:52;;;;;;;9.93;6.50;;;461.10;2176.00;;;;;;5060320;28;20328;-85
2021/09/23 11:05:20;;;;;;;11.52;5.72;;;486.40;2201.60;;;;;;5059231;28;20032;-85
2021/09/23 11:07:47;;;;;;;8.30;5.70;;;486.50;2150.40;;;;;;5057134;28;20135;-84
2021/09/23 11:10:19;;;;;;;7.22;4.47;;;486.90;2124.80;;;;;;5056528;28;20102;-85
2021/09/23 11:12:52;;;;;;;7.37;5.83;;;486.40;2022.40;;;;;;5055780;28;20026;-85
2021/09/23 11:15:21;;;;;;;5.82;4.07;;;461.70;2073.60;;;;;;5056421;28;20024;-86
2021/09/23 11:17:49;;;;;;;6.78;4.40;;;461.70;2073.60;;;;;;5056290;28;20032;-85
2021/09/23 11:20:23;;;;;;;7.47;4.80;;;461.40;2201.60;;;;;;5057130;28;20037;-86
2021/09/23 11:22:55;;;;;;;11.30;7.00;;;461.40;2099.20;;;;;;5057426;28;20032;-84
2021/09/23 11:25:29;;;;;;;8.68;4.65;;;461.30;2099.20;;;;;;5058676;28;20032;-86
2021/09/23 11:27:56;;;;;;;8.10;5.03;;;461.30;2073.60;;;;;;5058284;28;20035;-84
2021/09/23 11:30:27;;;;;;;9.30;6.28;;;461.40;2150.40;;;;;;5057597;28;20071;-83
2021/09/23 11:32:56;;;;;;;13.88;7.50;;;461.30;2073.60;;;;;;5059496;28;20097;-84
2021/09/23 11:35:24;;;;;;;8.35;6.05;;;461.50;2099.20;;;;;;5071583;28;20095;-86
2021/09/23 11:37:51;;;;;;;7.00;5.80;;;486.40;2124.80;;;;;;5080805;28;20093;-84
2021/09/23 11:40:29;;;;;;;6.68;5.68;;;487.20;1996.80;;;;;;5085425;28;20485;-84
2021/09/23 11:42:56;;;;;;;6.10;4.00;;;512.40;1971.20;;;;;;5064118;28;20025;-85
2021/09/23 11:45:25;;;;;;;5.53;4.13;;;512.80;1920.00;;;;;;5065096;28;20020;-84
2021/09/23 11:47:57;;;;;;;6.10;4.55;;;537.70;1945.60;;;;;;5078764;28;20524;-85
2021/09/23 11:50:39;;;;;;;6.87;4.70;;;537.70;1894.40;;;;;;5056723;28;20435;-84
2021/09/23 11:53:09;;;;;;;7.25;4.18;;;537.60;1920.00;;;;;;5056486;28;20273;-83
2021/09/23 11:55:56;;;;;;;11.73;6.88;;;537.80;1817.60;;;;;;5056629;28;20046;-84
2021/09/23 11:58:22;;;;;;;9.88;7.40;;;538.10;1868.80;;;;;;5055528;28;20040;-82
2021/09/23 12:00:50;;;;;;;13.38;8.75;;;538.50;1843.20;;;;;;5056239;28;20020;-81
2021/09/23 12:03:18;;;;;;;7.93;6.00;;;563.60;1843.20;;;;;;5055851;28;20029;-81
2021/09/23 12:05:45;;;;;;;8.40;4.32;;;563.60;1766.40;;;;;;5055734;28;20089;-81
2021/09/23 12:08:13;;;;;;;8.00;4.90;;;563.40;1689.60;;;;;;5055923;28;20073;-81
2021/09/23 12:10:54;;;;;;;8.25;4.75;;;563.40;1766.40;;;;;;5055917;28;20097;-83
2021/09/23 12:13:29;;;;;;;11.13;5.82;;;538.10;1740.80;;;;;;5056227;28;20021;-83
2021/09/23 12:15:57;;;;;;;5.95;4.55;;;537.90;1792.00;;;;;;5056547;28;20035;-84
2021/09/23 12:18:25;;;;;;;5.93;4.20;;;512.90;1740.80;;;;;;5056323;28;20025;-86
2021/09/23 12:20:53;;;;;;;5.13;3.95;;;512.70;1792.00;;;;;;5058021;28;20035;-82
2021/09/23 12:23:40;;;;;;;7.05;5.20;;;512.30;1792.00;;;;;;5056479;28;20483;-85
2021/09/23 12:26:11;;;;;;;7.47;4.20;;;512.50;1817.60;;;;;;5055368;28;20032;-81
2021/09/23 12:28:52;;;;;;;7.22;4.63;;;537.80;1792.00;;;;;;5056128;28;20189;-84
2021/09/23 12:31:33;;;;;;;10.98;6.93;;;512.60;1792.00;;;;;;5059583;28;20028;-85
2021/09/23 12:34:08;;;;;;;9.55;6.68;;;512.20;1817.60;;;;;;5092517;28;20024;-85
2021/09/23 12:36:38;;;;;;;8.93;5.82;;;512.00;1868.80;;;;;;5092681;28;20033;-85
2021/09/23 12:39:18;;;;;;;7.28;5.28;;;487.20;1817.60;;;;;;5091610;28;20192;-84
2021/09/23 12:41:59;;;;;;;31.15;17.40;;;487.00;1920.00;;;;;;5075676;28;20020;-84
2021/09/23 12:44:28;;;;;;;8.73;6.78;;;487.20;1817.60;;;;;;5075898;28;20027;-85
2021/09/23 12:47:12;;;;;;;9.70;6.18;;;512.00;1817.60;;;;;;5075413;28;20031;-85
2021/09/23 12:49:55;;;;;;;7.03;5.60;;;537.60;1868.80;;;;;;5071950;28;20462;-84
2021/09/23 12:52:33;;;;;;;8.27;4.70;;;537.70;1766.40;;;;;;5052363;28;20021;-84
2021/09/23 12:55:11;;;;;;;7.30;5.55;;;538.40;1843.20;;;;;;5052029;28;20029;-82
2021/09/23 12:57:44;;;;;;;10.13;6.75;;;563.20;1740.80;;;;;;5035605;28;20025;-82
2021/09/23 13:00:17;;;;;;;8.60;4.75;;;563.50;1817.60;;;;;;5051681;28;20025;-82
2021/09/23 13:02:46;;;;;;;8.82;6.22;;;563.60;1740.80;;;;;;5051140;28;20033;-82
2021/09/23 13:05:14;;;;;;;10.15;7.40;;;563.80;1792.00;;;;;;5051282;28;20032;-81
2021/09/23 13:07:50;;;;;;;9.65;5.53;;;564.10;1740.80;;;;;;5051409;28;20090;-82
2021/09/23 13:10:28;;;;;;;9.73;6.07;;;563.90;1715.20;;;;;;5052890;28;20543;-82
2021/09/23 13:12:59;;;;;;;8.63;5.38;;;564.10;1689.60;;;;;;5051730;28;20078;-83
2021/09/23 13:15:47;;;;;;;7.18;4.72;;;588.80;1715.20;;;;;;5035567;28;20138;-82
2021/09/23 13:18:15;;;;;;;6.43;4.47;;;564.10;1638.40;;;;;;5052257;28;20025;-83
2021/09/23 13:20:53;;;;;;;6.72;4.60;;;564.10;1638.40;;;;;;5065857;28;20070;-82
2021/09/23 13:23:21;;;;;;;5.80;4.15;;;589.10;1689.60;;;;;;5073162;28;20101;-83
2021/09/23 13:25:52;;;;;;;11.77;5.05;;;589.20;1638.40;;;;;;5074808;28;20025;-83
2021/09/23 13:28:32;;;;;;;6.30;4.28;;;589.10;1664.00;;;;;;5073273;28;20024;-83
2021/09/23 13:31:00;;;;;;;6.88;5.50;;;589.10;1689.60;;;;;;5072018;28;20132;-81
2021/09/23 13:33:26;;;;;;;7.53;4.82;;;589.10;1664.00;;;;;;5071882;28;20025;-81
2021/09/23 13:35:52;;;;;;;6.25;4.15;;;589.10;1715.20;;;;;;5072147;28;20024;-81
2021/09/23 13:38:20;;;;;;;4.78;3.65;;;589.20;1689.60;;;;;;5075313;28;20044;-81
2021/09/23 13:40:47;;;;;;;6.40;4.60;;;588.90;1638.40;;;;;;5075361;28;20021;-79
2021/09/23 13:43:13;;;;;;;4.82;3.58;;;589.00;1664.00;;;;;;5075257;28;20060;-80
2021/09/23 13:45:39;;;;;;;5.97;4.68;;;588.90;1612.80;;;;;;5076569;28;20487;-80
2021/09/23 13:48:07;;;;;;;5.32;4.07;;;589.00;1638.40;;;;;;5075037;28;20059;-80
2021/09/23 13:50:33;;;;;;;6.22;4.82;;;589.00;1689.60;;;;;;5075035;28;20443;-80
2021/09/23 13:52:59;;;;;;;6.78;4.40;;;589.10;1689.60;;;;;;5058428;28;20028;-80
2021/09/23 13:55:25;;;;;;;5.38;3.65;;;589.10;1638.40;;;;;;5054871;28;20376;-79
2021/09/23 13:57:51;;;;;;;5.07;3.78;;;589.20;1689.60;;;;;;5057186;28;20028;-80
2021/09/23 14:00:17;;;;;;;5.22;3.67;;;589.20;1664.00;;;;;;5074616;28;20388;-81
2021/09/23 14:02:43;;;;;;;6.75;4.13;;;589.00;1612.80;;;;;;5056652;28;20033;-79
2021/09/23 14:05:10;;;;;;;6.13;4.40;;;588.80;1664.00;;;;;;5057070;28;20353;-79
2021/09/23 14:07:37;;;;;;;6.00;3.88;;;564.10;1638.40;;;;;;5056938;28;20029;-79
2021/09/23 14:10:04;;;;;;;9.00;4.40;;;564.00;1612.80;;;;;;5056120;28;20037;-80
2021/09/23 14:12:30;;;;;;;7.80;4.32;;;564.00;1664.00;;;;;;5056497;28;20464;-80
2021/09/23 14:14:56;;;;;;;6.18;4.00;;;563.70;1664.00;;;;;;5057911;28;20039;-81
2021/09/23 14:17:23;;;;;;;8.45;4.00;;;563.60;1638.40;;;;;;5057827;28;20025;-81
2021/09/23 14:19:49;;;;;;;5.80;4.43;;;563.40;1612.80;;;;;;5058013;28;20119;-80
2021/09/23 14:22:14;;;;;;;7.68;3.83;;;563.60;1689.60;;;;;;5058039;28;20064;-81
2021/09/23 14:24:41;;;;;;;6.95;3.92;;;563.60;1664.00;;;;;;5060519;28;20032;-81
2021/09/23 14:27:07;;;;;;;7.30;4.43;;;563.40;1689.60;;;;;;5070018;28;20100;-81
2021/09/23 14:29:39;;;;;;;5.25;4.10;;;563.40;1715.20;;;;;;5056777;28;20147;-81
2021/09/23 14:32:09;;;;;;;4.63;3.75;;;538.50;1689.60;;;;;;5055887;28;20029;-80
2021/09/23 14:34:36;;;;;;;6.18;4.40;;;538.30;1664.00;;;;;;5056409;28;20043;-80
2021/09/23 14:37:03;;;;;;;6.28;4.30;;;538.00;1664.00;;;;;;5057228;28;20024;-81
2021/09/23 14:39:29;;;;;;;6.57;4.20;;;537.80;1689.60;;;;;;5074879;28;20052;-81
2021/09/23 14:41:55;;;;;;;6.80;4.18;;;537.60;1689.60;;;;;;5057699;28;20435;-81
2021/09/23 14:44:21;;;;;;;6.88;4.18;;;512.80;1689.60;;;;;;5075339;28;20029;-83
2021/09/23 14:46:47;;;;;;;5.70;4.28;;;512.40;1689.60;;;;;;5075439;28;20532;-82
2021/09/23 14:49:13;;;;;;;7.20;4.57;;;512.50;1715.20;;;;;;5057110;28;20093;-81
2021/09/23 14:51:39;;;;;;;6.50;4.30;;;512.20;1740.80;;;;;;5057066;28;20021;-81
2021/09/23 14:54:05;;;;;;;7.72;4.05;;;487.30;1740.80;;;;;;5057341;28;20028;-82
2021/09/23 14:56:31;;;;;;;5.78;4.43;;;487.00;1740.80;;;;;;5057286;28;20036;-81
2021/09/23 14:58:57;;;;;;;6.93;4.40;;;486.90;1766.40;;;;;;5074663;28;20460;-78
2021/09/23 15:01:23;;;;;;;5.05;4.00;;;486.90;1817.60;;;;;;5057210;28;20062;-79
2021/09/23 15:03:49;;;;;;;7.80;6.25;;;486.80;1766.40;;;;;;5056969;28;20430;-80
2021/09/23 15:06:16;;;;;;;6.70;5.20;;;486.80;1817.60;;;;;;5056835;28;20107;-79
2021/09/23 15:08:42;;;;;;;6.57;4.15;;;486.70;1792.00;;;;;;5074933;28;20079;-80
2021/09/23 15:11:09;;;;;;;6.55;4.40;;;486.70;1792.00;;;;;;5075081;28;20021;-77
2021/09/23 15:13:35;;;;;;;6.43;5.03;;;486.60;1843.20;;;;;;5056709;28;20165;-81
2021/09/23 15:16:06;;;;;;;6.95;4.75;;;486.40;1843.20;;;;;;5056707;28;20154;-80
2021/09/23 15:18:32;;;;;;;5.85;4.55;;;461.60;1817.60;;;;;;5057134;28;20032;-83
2021/09/23 15:20:59;;;;;;;7.43;4.60;;;461.50;1843.20;;;;;;5057145;28;20031;-82
2021/09/23 15:23:25;;;;;;;7.25;5.80;;;461.50;1868.80;;;;;;5076080;28;20112;-82
2021/09/23 15:25:51;;;;;;;7.00;5.45;;;461.40;1894.40;;;;;;5058003;28;20484;-82
2021/09/23 15:28:17;;;;;;;10.25;7.25;;;461.30;1894.40;;;;;;5057298;28;20024;-81
2021/09/23 15:30:43;;;;;;;7.80;6.05;;;461.40;1894.40;;;;;;5058254;28;20029;-83
2021/09/23 15:33:09;;;;;;;9.77;7.20;;;461.40;1920.00;;;;;;5075983;28;20020;-84
2021/09/23 15:35:36;;;;;;;12.23;7.47;;;461.30;1894.40;;;;;;5057842;28;20025;-83
2021/09/23 15:38:03;;;;;;;11.75;8.77;;;461.20;1945.60;;;;;;5057078;28;20465;-82
2021/09/23 15:40:38;;;;;;;9.82;6.45;;;461.10;1945.60;;;;;;5063844;28;20028;-81
2021/09/23 15:43:06;;;;;;;7.32;5.53;;;460.90;1945.60;;;;;;5061864;28;20035;-84
2021/09/23 15:45:32;;;;;;;6.57;5.68;;;460.90;1971.20;;;;;;5074763;28;20467;-81
2021/09/23 15:47:58;;;;;;;7.32;5.90;;;461.10;1971.20;;;;;;5074019;28;20085;-83
2021/09/23 15:50:24;;;;;;;6.63;5.40;;;460.80;1971.20;;;;;;5072917;28;20511;-84
2021/09/23 15:52:52;;;;;;;7.45;5.63;;;436.10;1920.00;;;;;;5074250;28;20062;-84
2021/09/23 15:55:18;;;;;;;6.18;5.20;;;436.10;1945.60;;;;;;5056012;28;20466;-84
2021/09/23 15:57:45;;;;;;;9.00;6.18;;;436.00;1996.80;;;;;;5056251;28;20119;-82
2021/09/23 16:00:14;;;;;;;8.18;6.63;;;435.90;1971.20;;;;;;5073616;28;20024;-82
2021/09/23 16:02:41;;;;;;;9.32;6.93;;;435.80;2048.00;;;;;;5055931;28;20073;-84
2021/09/23 16:05:09;;;;;;;7.32;6.13;;;435.60;2048.00;;;;;;5055897;28;20029;-81
2021/09/23 16:07:36;;;;;;;11.13;6.47;;;435.60;2124.80;;;;;;5055555;28;20082;-82
2021/09/23 16:10:03;;;;;;;10.98;6.60;;;435.50;2176.00;;;;;;5073639;28;20107;-80
2021/09/23 16:12:29;;;;;;;15.85;12.10;;;435.40;2201.60;;;;;;5074104;28;20029;-81
2021/09/23 16:14:55;;;;;;;10.38;8.07;;;435.30;2201.60;;;;;;5073725;28;20392;-82
2021/09/23 16:17:21;;;;;;;8.55;7.65;;;435.20;2227.20;;;;;;5055838;28;20052;-84
2021/09/23 16:19:47;;;;;;;9.63;7.78;;;410.50;2252.80;;;;;;5056700;28;20035;-81
2021/09/23 16:22:13;;;;;;;8.65;7.07;;;410.50;2176.00;;;;;;5056897;28;20433;-81
2021/09/23 16:24:39;;;;;;;12.95;7.30;;;410.50;2227.20;;;;;;5056950;28;20060;-81